Portada
METAR-TAF:

METAR-TAF

Aeropuertos :

Base Aérea de Beja

Beja, Portugal

latitud: 38-04-40N, longitud: 007-55-57W, altitud: 193 m

Observación

El informe se hizo hace 1 hora y 10 minutos, a las 13:00 UTC
Viento 4 kt del este, variando entre este-noreste y sureste
Temperatura 16°C
Humedad 45%
Presión 1031 hPa
Visibilidad 10 km o más
sin nubes por debajo de 1500 m y sin presencia de cumulonimbus.

METAR: LPBJ 031300Z 09004KT 060V140 CAVOK 16/04 Q1031

Hora: 14:10 (14:10 UTC)

Pronóstico

El informe se hizo hace 3 horas y 7 minutos, a las 11:03 UTC
Pronóstico válido del 03 a las 12 UTC al 04 a las 12 UTC
Viento 8 kt del este-noreste
Visibilidad 10 km o más
sin nubes por debajo de 1500 m y sin presencia de cumulonimbus.

TAF: LPBJ 031103Z 0312/0412 07008KT CAVOK

Observaciones y pronósticos meteorológicos de más de 4000 aeropuertos (mensajes METAR y TAF).

Los puntos amarillos y rojos representan las estaciones disponibles.

Ponga el ratón en el punto deseado para ver el nombre de la estación.

Haga clic para ver las observaciones y los pronósticos meteorológicos.

Para cambiar el mapa : haga clic en los botones verdes con una cruz de color negro para hacer un zoom, en el botón verde con un guión para alejar o en las flechas verdes para mapas adyacentes.


METAR-TAF: